createdAt,value
2023-04-18T00:00:27.018Z,5.97
2023-04-18T00:02:55.789Z,5.67
2023-04-18T00:05:26.246Z,5.37
2023-04-18T00:07:54.542Z,5.97
2023-04-18T00:10:22.724Z,5.10
2023-04-18T00:12:52.765Z,8.93
2023-04-18T00:15:29.270Z,5.50
2023-04-18T00:17:57.535Z,7.13
2023-04-18T00:20:27.114Z,5.60
2023-04-18T00:22:56.100Z,5.73
2023-04-18T00:25:24.244Z,5.00
2023-04-18T00:27:52.392Z,5.50
2023-04-18T00:30:20.560Z,5.63
2023-04-18T00:32:51.717Z,10.23
2023-04-18T00:35:20.538Z,7.30
2023-04-18T00:37:50.060Z,6.83
2023-04-18T00:40:18.158Z,6.33
2023-04-18T00:42:46.202Z,5.87
2023-04-18T00:45:14.271Z,6.00
2023-04-18T00:47:42.393Z,5.80
2023-04-18T00:50:13.978Z,5.33
2023-04-18T00:52:42.290Z,5.50
2023-04-18T00:55:12.180Z,6.07
2023-04-18T00:57:40.297Z,5.63
2023-04-18T01:00:10.205Z,5.57
2023-04-18T01:02:39.711Z,5.10
2023-04-18T01:05:09.104Z,5.83
2023-04-18T01:07:38.371Z,5.40
2023-04-18T01:10:07.513Z,5.00
2023-04-18T01:12:37.663Z,6.20
2023-04-18T01:15:06.650Z,4.97
2023-04-18T01:17:35.901Z,5.23
2023-04-18T01:20:06.330Z,5.90
2023-04-18T01:22:34.484Z,4.60
2023-04-18T01:25:07.717Z,4.87
2023-04-18T01:27:35.911Z,4.90
2023-04-18T01:30:04.146Z,5.03
2023-04-18T01:32:32.283Z,5.50
2023-04-18T01:35:00.408Z,5.37
2023-04-18T01:37:28.502Z,4.50
2023-04-18T01:39:58.297Z,4.50
2023-04-18T01:42:27.939Z,4.53
2023-04-18T01:44:56.021Z,4.23
2023-04-18T01:47:24.148Z,5.10
2023-04-18T01:49:52.342Z,4.40
2023-04-18T01:52:20.478Z,5.63
2023-04-18T01:54:48.542Z,4.13
2023-04-18T01:57:17.792Z,4.50
2023-04-18T01:59:47.284Z,4.80
2023-04-18T02:02:15.580Z,3.70
2023-04-18T02:04:43.880Z,4.40
2023-04-18T02:07:12.008Z,4.77
2023-04-18T02:09:40.041Z,3.77
2023-04-18T02:12:08.460Z,4.50
2023-04-18T02:14:42.358Z,4.57
2023-04-18T02:17:11.855Z,4.60
2023-04-18T02:19:39.942Z,4.23
2023-04-18T02:22:08.157Z,3.87
2023-04-18T02:24:36.287Z,4.37
2023-04-18T02:27:04.619Z,4.30
2023-04-18T02:29:32.723Z,4.23
2023-04-18T02:32:00.925Z,3.80
2023-04-18T02:34:37.133Z,4.53
2023-04-18T02:37:05.274Z,4.23
2023-04-18T02:39:33.394Z,4.53
2023-04-18T02:42:01.717Z,4.20
2023-04-18T02:44:29.821Z,3.87
2023-04-18T02:46:57.898Z,4.70
2023-04-18T02:49:25.959Z,4.13
2023-04-18T02:51:57.223Z,3.80
2023-04-18T02:54:25.782Z,5.23
2023-04-18T02:56:54.951Z,3.43
2023-04-18T02:59:23.102Z,4.07
2023-04-18T03:01:51.199Z,4.00
2023-04-18T03:04:19.402Z,3.73
2023-04-18T03:06:47.860Z,4.20
2023-04-18T03:09:17.525Z,4.10
2023-04-18T03:11:45.585Z,4.17
2023-04-18T03:14:13.838Z,4.00
2023-04-18T03:16:42.051Z,4.07
2023-04-18T03:19:10.489Z,4.50
2023-04-18T03:21:38.582Z,3.50
2023-04-18T03:24:07.509Z,4.57
2023-04-18T03:26:37.305Z,3.57
2023-04-18T03:29:06.344Z,3.50
2023-04-18T03:31:34.600Z,3.40
2023-04-18T03:34:02.811Z,3.80
2023-04-18T03:36:52.232Z,3.70
2023-04-18T03:39:20.364Z,2.77
2023-04-18T03:41:54.624Z,3.50
2023-04-18T03:44:22.761Z,3.50
2023-04-18T03:46:50.938Z,4.50
2023-04-18T03:49:19.027Z,3.33
2023-04-18T03:51:48.371Z,3.67
2023-04-18T03:54:16.761Z,3.20
2023-04-18T03:56:45.050Z,3.93
2023-04-18T03:59:15.450Z,3.33
2023-04-18T04:01:43.637Z,4.13
2023-04-18T04:04:14.120Z,3.00
2023-04-18T04:06:42.524Z,3.40
2023-04-18T04:12:06.925Z,3.57
2023-04-18T04:14:36.462Z,4.60
2023-04-18T04:17:04.635Z,3.50
2023-04-18T04:19:32.738Z,3.90
2023-04-18T04:22:00.851Z,3.47
2023-04-18T04:24:29.144Z,3.00
2023-04-18T04:26:57.284Z,4.20
2023-04-18T04:29:26.333Z,3.57
2023-04-18T04:31:55.793Z,4.20
2023-04-18T04:34:23.827Z,5.30
2023-04-18T04:36:52.214Z,4.73
2023-04-18T04:39:20.340Z,4.07
2023-04-18T04:41:48.571Z,3.60
2023-04-18T04:44:17.670Z,4.37
2023-04-18T04:46:45.888Z,3.30
2023-04-18T04:49:15.521Z,4.03
2023-04-18T04:51:44.395Z,4.13
2023-04-18T04:54:12.808Z,4.47
2023-04-18T04:56:41.092Z,4.23
2023-04-18T04:59:15.077Z,4.43
2023-04-18T05:01:43.190Z,3.87
2023-04-18T05:04:11.476Z,3.83
2023-04-18T05:06:41.093Z,4.57
2023-04-18T05:09:09.221Z,4.37
2023-04-18T05:11:37.329Z,3.83
2023-04-18T05:14:05.487Z,4.50
2023-04-18T05:16:34.082Z,3.50
2023-04-18T05:19:02.200Z,4.20
2023-04-18T05:21:31.344Z,4.60
2023-04-18T05:24:00.891Z,3.83
2023-04-18T05:26:28.976Z,4.20
2023-04-18T05:28:57.067Z,4.73
2023-04-18T05:31:25.915Z,3.63
2023-04-18T05:33:54.055Z,3.87
2023-04-18T05:36:22.101Z,4.10
2023-04-18T05:38:50.312Z,4.50
2023-04-18T05:41:19.768Z,5.43
2023-04-18T05:44:01.907Z,4.50
2023-04-18T05:46:32.738Z,4.60
2023-04-18T05:49:00.813Z,3.93
2023-04-18T05:51:29.282Z,5.07
2023-04-18T05:53:57.410Z,4.13
2023-04-18T05:56:26.920Z,4.00
2023-04-18T05:58:55.031Z,4.00
2023-04-18T06:01:23.390Z,4.07
2023-04-18T06:03:51.762Z,4.07
2023-04-18T06:06:19.929Z,4.00
2023-04-18T06:08:47.973Z,3.87
2023-04-18T06:11:16.114Z,3.87
2023-04-18T06:13:45.522Z,4.10
2023-04-18T06:16:14.003Z,4.37
2023-04-18T06:18:42.183Z,4.30
2023-04-18T06:21:10.276Z,4.53
2023-04-18T06:23:39.195Z,4.07
2023-04-18T06:26:11.197Z,4.10
2023-04-18T06:28:39.336Z,5.37
2023-04-18T06:31:09.465Z,4.13
2023-04-18T06:33:37.774Z,4.67
2023-04-18T06:36:07.263Z,4.30
2023-04-18T06:38:35.455Z,4.30
2023-04-18T06:41:03.629Z,4.20
2023-04-18T06:43:31.698Z,4.60
2023-04-18T06:46:00.156Z,5.03
2023-04-18T06:48:29.715Z,4.80
2023-04-18T06:50:57.859Z,4.67
2023-04-18T06:53:25.975Z,4.23
2023-04-18T06:55:53.992Z,3.73
2023-04-18T06:58:22.065Z,4.30
2023-04-18T07:00:52.015Z,4.40
2023-04-18T07:03:20.536Z,4.77
2023-04-18T07:05:50.704Z,3.67
2023-04-18T07:08:18.757Z,4.33
2023-04-18T07:10:47.012Z,5.07
2023-04-18T07:13:15.061Z,4.00
2023-04-18T07:15:43.138Z,3.93
2023-04-18T07:18:11.438Z,4.70
2023-04-18T07:20:39.610Z,4.50
2023-04-18T07:23:10.416Z,4.27
2023-04-18T07:25:39.318Z,4.23
2023-04-18T07:28:07.384Z,4.90
2023-04-18T07:30:35.498Z,4.27
2023-04-18T07:33:03.650Z,5.60
2023-04-18T07:35:31.917Z,4.67
2023-04-18T07:37:59.997Z,5.20
2023-04-18T07:40:29.416Z,4.50
2023-04-18T07:42:57.495Z,4.60
2023-04-18T07:45:27.805Z,5.03
2023-04-18T07:47:56.775Z,4.90
2023-04-18T07:50:25.350Z,5.17
2023-04-18T07:52:53.416Z,4.70
2023-04-18T07:55:21.600Z,5.33
2023-04-18T07:57:51.112Z,5.43
2023-04-18T08:00:19.601Z,4.80
2023-04-18T08:02:47.907Z,5.20
2023-04-18T08:05:16.240Z,5.47
2023-04-18T08:07:44.356Z,4.93
2023-04-18T08:10:12.716Z,5.43
2023-04-18T08:12:40.779Z,5.13
2023-04-18T08:15:11.322Z,5.17
2023-04-18T08:17:45.330Z,5.40
2023-04-18T08:20:14.593Z,4.80
2023-04-18T08:22:57.399Z,5.33
2023-04-18T08:25:31.726Z,4.97
2023-04-18T08:27:59.817Z,4.57
2023-04-18T08:30:30.778Z,5.17
2023-04-18T08:32:59.004Z,5.70
2023-04-18T08:35:27.125Z,5.27
2023-04-18T08:37:55.144Z,5.33
2023-04-18T08:40:23.395Z,4.97
2023-04-18T08:42:51.633Z,4.87
2023-04-18T08:45:19.745Z,5.93
2023-04-18T08:47:49.433Z,4.97
2023-04-18T08:50:18.493Z,5.00
2023-04-18T08:52:47.431Z,5.07
2023-04-18T08:55:15.906Z,5.20
2023-04-18T08:57:44.011Z,5.20
2023-04-18T09:00:13.216Z,4.63
2023-04-18T09:02:43.863Z,4.93
2023-04-18T09:05:14.507Z,4.97
2023-04-18T09:07:42.858Z,5.60
2023-04-18T09:10:12.566Z,4.73
2023-04-18T09:12:50.296Z,6.33
2023-04-18T09:15:20.291Z,6.00
2023-04-18T09:17:50.944Z,4.83
2023-04-18T09:20:37.996Z,6.53
2023-04-18T09:25:53.260Z,5.37
2023-04-18T09:28:24.726Z,5.03
2023-04-18T09:30:53.392Z,4.70
2023-04-18T09:33:28.339Z,5.10
2023-04-18T09:36:01.235Z,4.67
2023-04-18T09:38:40.225Z,5.37
2023-04-18T09:41:09.793Z,4.93
2023-04-18T09:43:37.927Z,4.93
2023-04-18T09:46:06.286Z,5.70
2023-04-18T09:48:34.405Z,4.80
2023-04-18T09:51:07.131Z,4.70
2023-04-18T09:53:35.627Z,4.63
2023-04-18T09:56:03.773Z,5.30
2023-04-18T09:58:31.903Z,5.00
2023-04-18T10:00:59.987Z,5.57
2023-04-18T10:03:29.862Z,4.60
2023-04-18T10:05:58.052Z,5.33
2023-04-18T10:08:27.582Z,5.07
2023-04-18T10:10:58.649Z,5.13
2023-04-18T10:13:29.803Z,5.93
2023-04-18T10:15:58.076Z,6.23
2023-04-18T10:18:26.255Z,5.23
2023-04-18T10:21:01.516Z,5.67
2023-04-18T10:23:37.975Z,5.50
2023-04-18T10:26:06.490Z,4.97
2023-04-18T10:29:09.373Z,5.07
2023-04-18T10:31:40.465Z,5.73
2023-04-18T10:34:08.626Z,5.03
2023-04-18T10:36:36.810Z,5.80
2023-04-18T10:39:22.437Z,5.50
2023-04-18T10:41:51.539Z,6.17
2023-04-18T10:44:22.287Z,5.67
2023-04-18T10:47:32.228Z,5.67
2023-04-18T10:50:06.339Z,5.53
2023-04-18T10:52:34.993Z,5.27
2023-04-18T10:55:12.690Z,5.67
2023-04-18T10:57:44.047Z,7.03
2023-04-18T11:00:13.940Z,6.23
2023-04-18T11:02:56.370Z,4.83
2023-04-18T11:05:30.079Z,6.87
2023-04-18T11:07:58.173Z,5.30
2023-04-18T11:10:27.931Z,6.63
2023-04-18T11:12:56.254Z,5.27
2023-04-18T11:15:25.680Z,5.80
2023-04-18T11:18:00.033Z,6.03
2023-04-18T11:20:28.432Z,5.30
2023-04-18T11:22:57.754Z,6.10
2023-04-18T11:25:31.940Z,5.60
2023-04-18T11:28:00.556Z,6.17
2023-04-18T11:30:28.957Z,5.60
2023-04-18T11:32:57.141Z,6.70
2023-04-18T11:35:25.355Z,7.50
2023-04-18T11:37:53.450Z,6.63
2023-04-18T11:40:21.558Z,6.53
2023-04-18T11:42:51.093Z,6.73
2023-04-18T11:45:19.218Z,6.10
2023-04-18T11:47:48.867Z,8.20
2023-04-18T11:50:17.261Z,7.40
2023-04-18T11:52:45.481Z,7.20
2023-04-18T11:55:14.883Z,7.60
2023-04-18T11:57:43.239Z,7.10
2023-04-18T12:00:15.387Z,7.70
2023-04-18T12:02:44.833Z,6.90
2023-04-18T12:05:15.044Z,6.50
2023-04-18T12:07:44.136Z,8.80
2023-04-18T12:10:35.860Z,7.87
2023-04-18T12:13:07.402Z,6.20
2023-04-18T12:15:39.716Z,7.23
2023-04-18T12:18:09.306Z,6.90
2023-04-18T12:20:46.351Z,6.43
2023-04-18T12:23:30.492Z,6.50
2023-04-18T12:26:02.516Z,6.80
2023-04-18T12:28:30.574Z,7.00
2023-04-18T12:31:00.134Z,7.00
2023-04-18T12:33:28.292Z,6.30
2023-04-18T12:35:59.365Z,7.17
2023-04-18T12:38:27.649Z,6.90
2023-04-18T12:40:55.762Z,6.93
2023-04-18T12:43:23.884Z,8.40
2023-04-18T12:45:52.025Z,7.73
2023-04-18T12:48:21.566Z,8.83
2023-04-18T12:50:49.671Z,7.10
2023-04-18T12:53:18.024Z,8.30
2023-04-18T12:55:46.108Z,8.80
2023-04-18T12:58:18.525Z,7.33
2023-04-18T13:00:53.422Z,7.00
2023-04-18T13:03:23.134Z,7.57
2023-04-18T13:05:52.001Z,7.13
2023-04-18T13:08:21.721Z,6.87
2023-04-18T13:10:49.874Z,7.37
2023-04-18T13:13:18.051Z,6.83
2023-04-18T13:15:46.122Z,7.27
2023-04-18T13:18:21.771Z,8.33
2023-04-18T13:20:51.265Z,7.10
2023-04-18T13:23:19.373Z,7.63
2023-04-18T13:25:47.445Z,6.53
2023-04-18T13:28:15.712Z,8.70
2023-04-18T13:30:44.065Z,7.60
2023-04-18T13:33:12.164Z,7.07
2023-04-18T13:35:41.713Z,7.63
2023-04-18T13:38:12.143Z,7.23
2023-04-18T13:40:40.213Z,7.40
2023-04-18T13:43:09.998Z,8.27
2023-04-18T13:45:38.114Z,7.43
2023-04-18T13:48:06.694Z,7.93
2023-04-18T13:50:34.761Z,8.93
2023-04-18T13:53:02.905Z,9.13
2023-04-18T13:55:32.368Z,7.00
2023-04-18T13:58:00.742Z,6.73
2023-04-18T14:00:28.996Z,7.20
2023-04-18T14:02:57.650Z,7.60
2023-04-18T14:05:25.877Z,7.13
2023-04-18T14:07:54.014Z,8.73
2023-04-18T14:10:23.536Z,8.17
2023-04-18T14:12:53.027Z,6.60
2023-04-18T14:15:21.522Z,7.27
2023-04-18T14:17:49.623Z,6.93
2023-04-18T14:20:19.267Z,7.17
2023-04-18T14:22:47.534Z,7.73
2023-04-18T14:25:18.463Z,6.87
2023-04-18T14:27:48.681Z,7.70
2023-04-18T14:30:18.214Z,9.07
2023-04-18T14:32:46.633Z,8.67
2023-04-18T14:35:14.812Z,7.17
2023-04-18T14:37:42.923Z,7.93
2023-04-18T14:40:12.404Z,7.83
2023-04-18T14:42:40.666Z,7.67
2023-04-18T14:45:11.284Z,8.47
2023-04-18T14:47:42.003Z,7.13
2023-04-18T14:50:15.324Z,7.33
2023-04-18T14:52:43.461Z,12.97
2023-04-18T14:55:11.751Z,12.80
2023-04-18T14:57:42.092Z,7.97
2023-04-18T15:00:12.096Z,6.90
2023-04-18T15:02:41.847Z,8.20
2023-04-18T15:05:11.979Z,8.03
2023-04-18T15:07:40.884Z,8.03
2023-04-18T15:10:12.649Z,7.17
2023-04-18T15:12:41.613Z,7.97
2023-04-18T15:15:16.178Z,6.60
2023-04-18T15:17:45.732Z,7.10
2023-04-18T15:20:13.873Z,9.03
2023-04-18T15:22:41.985Z,7.80
2023-04-18T15:25:10.431Z,7.80
2023-04-18T15:27:38.692Z,7.50
2023-04-18T15:30:09.671Z,7.20
2023-04-18T15:32:42.153Z,7.10
2023-04-18T15:35:11.884Z,8.40
2023-04-18T15:37:39.983Z,7.57
2023-04-18T15:40:11.233Z,7.43
2023-04-18T15:42:39.934Z,7.10
2023-04-18T15:45:09.169Z,10.97
2023-04-18T15:47:38.651Z,8.50
2023-04-18T15:50:08.375Z,7.80
2023-04-18T15:52:37.900Z,7.10
2023-04-18T15:55:07.425Z,8.40
2023-04-18T15:57:35.783Z,7.40
2023-04-18T16:00:05.451Z,8.00
2023-04-18T16:02:33.570Z,8.10
2023-04-18T16:05:15.699Z,6.90
2023-04-18T16:07:45.196Z,7.13
2023-04-18T16:10:15.200Z,7.80
2023-04-18T16:12:43.513Z,7.80
2023-04-18T16:15:12.455Z,7.20
2023-04-18T16:17:40.588Z,6.80
2023-04-18T16:20:10.148Z,7.30
2023-04-18T16:22:41.346Z,6.60
2023-04-18T16:25:11.705Z,6.30
2023-04-18T16:27:39.813Z,6.30
2023-04-18T16:30:10.024Z,7.27
2023-04-18T16:32:38.381Z,6.93
2023-04-18T16:35:07.906Z,6.90
2023-04-18T16:37:36.068Z,6.90
2023-04-18T16:40:05.584Z,6.87
2023-04-18T16:42:42.710Z,6.83
2023-04-18T16:45:11.124Z,7.47
2023-04-18T16:47:39.328Z,6.27
2023-04-18T16:50:08.702Z,6.67
2023-04-18T16:52:36.912Z,6.73
2023-04-18T16:55:05.653Z,7.50
2023-04-18T16:57:35.140Z,6.60
2023-04-18T17:00:04.928Z,6.73
2023-04-18T17:02:33.312Z,7.57
2023-04-18T17:05:01.593Z,6.47
2023-04-18T17:07:30.417Z,7.03
2023-04-18T17:09:58.680Z,6.30
2023-04-18T17:12:27.178Z,6.60
2023-04-18T17:14:56.681Z,6.63
2023-04-18T17:17:24.853Z,7.53
2023-04-18T17:19:52.945Z,6.60
2023-04-18T17:22:21.026Z,7.23
2023-04-18T17:24:49.351Z,7.03
2023-04-18T17:27:17.439Z,7.37
2023-04-18T17:29:45.618Z,6.70
2023-04-18T17:32:15.375Z,7.00
2023-04-18T17:34:43.524Z,6.23
2023-04-18T17:37:12.257Z,7.40
2023-04-18T17:39:40.759Z,6.93
2023-04-18T17:42:08.883Z,6.80
2023-04-18T17:44:39.663Z,7.37
2023-04-18T17:47:07.894Z,7.47
2023-04-18T17:49:37.392Z,6.00
2023-04-18T17:52:05.804Z,7.10
2023-04-18T17:54:34.012Z,6.27
2023-04-18T17:57:02.500Z,7.77
2023-04-18T17:59:30.565Z,6.50
2023-04-18T18:02:07.234Z,6.13
2023-04-18T18:04:37.407Z,6.60
2023-04-18T18:07:05.925Z,7.07
2023-04-18T18:09:34.014Z,7.30
2023-04-18T18:12:02.548Z,6.60
2023-04-18T18:14:30.658Z,6.27
2023-04-18T18:16:59.045Z,7.70
2023-04-18T18:19:27.823Z,7.13
2023-04-18T18:21:57.256Z,6.83
2023-04-18T18:24:26.866Z,6.37
2023-04-18T18:26:54.992Z,7.30
2023-04-18T18:29:23.077Z,7.07
2023-04-18T18:31:51.219Z,6.83
2023-04-18T18:34:19.992Z,6.90
2023-04-18T18:36:48.501Z,7.10
2023-04-18T18:39:18.053Z,6.73
2023-04-18T18:41:46.129Z,7.30
2023-04-18T18:44:14.385Z,7.30
2023-04-18T18:46:43.346Z,7.00
2023-04-18T18:49:11.773Z,6.53
2023-04-18T18:51:41.388Z,6.87
2023-04-18T18:54:09.477Z,6.53
2023-04-18T18:56:40.079Z,6.60
2023-04-18T18:59:08.183Z,6.57
2023-04-18T19:01:36.312Z,6.63
2023-04-18T19:04:04.735Z,6.90
2023-04-18T19:06:32.986Z,6.97
2023-04-18T19:09:01.106Z,6.33
2023-04-18T19:11:29.649Z,6.70
2023-04-18T19:13:59.230Z,7.40
2023-04-18T19:16:28.146Z,6.43
2023-04-18T19:18:56.343Z,6.43
2023-04-18T19:21:24.457Z,6.80
2023-04-18T19:23:52.608Z,6.90
2023-04-18T19:26:20.686Z,6.80
2023-04-18T19:28:48.958Z,6.97
2023-04-18T19:31:18.458Z,6.63
2023-04-18T19:33:46.547Z,6.17
2023-04-18T19:36:15.049Z,6.77
2023-04-18T19:38:43.139Z,7.03
2023-04-18T19:41:27.505Z,6.57
2023-04-18T19:43:55.616Z,6.33
2023-04-18T19:46:25.141Z,7.17
2023-04-18T19:48:53.262Z,6.67
2023-04-18T19:51:21.334Z,6.77
2023-04-18T19:53:49.449Z,7.17
2023-04-18T19:56:17.519Z,8.23
2023-04-18T19:58:49.116Z,6.97
2023-04-18T20:01:18.237Z,6.07
2023-04-18T20:03:49.441Z,7.37
2023-04-18T20:06:17.788Z,6.60
2023-04-18T20:08:46.224Z,5.80
2023-04-18T20:11:14.967Z,5.73
2023-04-18T20:13:46.163Z,6.83
2023-04-18T20:16:15.337Z,7.13
2023-04-18T20:18:44.275Z,6.13
2023-04-18T20:21:13.717Z,7.40
2023-04-18T20:23:42.654Z,6.27
2023-04-18T20:26:10.840Z,7.17
2023-04-18T20:28:38.961Z,6.87
2023-04-18T20:31:07.780Z,7.00
2023-04-18T20:33:36.552Z,8.97
2023-04-18T20:36:05.484Z,7.37
2023-04-18T20:38:34.917Z,6.63
2023-04-18T20:41:03.163Z,7.07
2023-04-18T20:43:37.295Z,6.40
2023-04-18T20:46:06.959Z,7.00
2023-04-18T20:48:35.107Z,6.93
2023-04-18T20:51:03.237Z,6.40
2023-04-18T20:53:31.362Z,7.77
2023-04-18T20:56:02.122Z,6.83
2023-04-18T20:58:31.040Z,6.30
2023-04-18T21:00:59.137Z,7.10
2023-04-18T21:03:31.564Z,6.80
2023-04-18T21:05:59.739Z,6.93
2023-04-18T21:08:27.846Z,6.87
2023-04-18T21:10:56.021Z,6.90
2023-04-18T21:13:25.533Z,6.73
2023-04-18T21:15:53.734Z,7.23
2023-04-18T21:18:21.881Z,6.93
2023-04-18T21:20:50.160Z,6.80
2023-04-18T21:23:18.262Z,6.10
2023-04-18T21:25:46.385Z,7.07
2023-04-18T21:28:14.488Z,7.27
2023-04-18T21:30:44.184Z,6.50
2023-04-18T21:33:12.301Z,6.00
2023-04-18T21:35:43.549Z,6.40
2023-04-18T21:38:11.692Z,6.20
2023-04-18T21:40:39.815Z,6.77
2023-04-18T21:43:07.921Z,6.03
2023-04-18T21:45:36.070Z,7.03
2023-04-18T21:48:06.381Z,6.60
2023-04-18T21:50:34.521Z,6.37
2023-04-18T21:53:02.713Z,6.40
2023-04-18T21:55:31.641Z,6.30
2023-04-18T21:57:59.742Z,6.57
2023-04-18T22:00:27.921Z,6.80
2023-04-18T22:02:56.242Z,6.50
2023-04-18T22:05:26.350Z,6.33
2023-04-18T22:07:58.545Z,6.97
2023-04-18T22:10:29.930Z,5.80
2023-04-18T22:12:58.450Z,6.70
2023-04-18T22:15:27.904Z,6.40
2023-04-18T22:17:56.839Z,5.37
2023-04-18T22:20:26.874Z,6.50
2023-04-18T22:22:55.351Z,6.37
2023-04-18T22:25:23.418Z,9.03
2023-04-18T22:27:51.516Z,6.53
2023-04-18T22:30:22.662Z,6.40
2023-04-18T22:33:00.530Z,5.90
2023-04-18T22:35:29.960Z,8.20
2023-04-18T22:37:58.018Z,6.30
2023-04-18T22:40:26.829Z,6.40
2023-04-18T22:42:55.178Z,6.10
2023-04-18T22:45:23.281Z,6.50
2023-04-18T22:47:51.401Z,6.30
2023-04-18T22:50:19.622Z,6.27
2023-04-18T22:52:49.173Z,5.83
2023-04-18T22:55:17.463Z,6.27
2023-04-18T22:57:45.535Z,5.90
2023-04-18T23:00:14.683Z,6.47
2023-04-18T23:02:42.857Z,5.90
2023-04-18T23:05:11.844Z,5.77
2023-04-18T23:07:40.029Z,6.20
2023-04-18T23:10:11.119Z,5.47
2023-04-18T23:12:39.307Z,5.93
2023-04-18T23:15:08.896Z,6.40
2023-04-18T23:17:37.083Z,6.27
2023-04-18T23:20:06.868Z,5.97
2023-04-18T23:22:34.973Z,6.17
2023-04-18T23:25:03.042Z,5.53
2023-04-18T23:27:32.549Z,6.13
2023-04-18T23:30:00.647Z,6.20
2023-04-18T23:32:28.725Z,5.73
2023-04-18T23:34:56.818Z,9.40
2023-04-18T23:37:24.958Z,6.27
2023-04-18T23:39:53.035Z,7.63
2023-04-18T23:42:24.016Z,6.70
2023-04-18T23:44:54.550Z,6.63
2023-04-18T23:47:22.677Z,6.83
2023-04-18T23:49:50.724Z,6.57
2023-04-18T23:52:18.808Z,6.53
2023-04-18T23:54:46.954Z,6.50
2023-04-18T23:57:15.130Z,6.17
2023-04-18T23:59:43.258Z,5.90
